createdAt,value
2022-08-16T00:02:00.469Z,51.91406
2022-08-16T00:06:59.374Z,52.0791
2022-08-16T00:11:59.644Z,52.11621
2022-08-16T00:17:11.925Z,52.33398
2022-08-16T00:22:06.794Z,52.25879
2022-08-16T00:26:59.097Z,52.50586
2022-08-16T00:32:05.691Z,52.69531
2022-08-16T00:36:59.220Z,52.58887
2022-08-16T00:41:59.272Z,52.6416
2022-08-16T00:47:05.920Z,53.13867
2022-08-16T00:51:59.319Z,53.52148
2022-08-16T00:57:03.502Z,53.4375
2022-08-16T01:01:59.350Z,54.2666
2022-08-16T01:07:01.806Z,54.37793
2022-08-16T01:11:59.212Z,54.25098
2022-08-16T01:17:00.895Z,54.29297
2022-08-16T01:22:47.487Z,53.93945
2022-08-16T01:27:06.417Z,53.57227
2022-08-16T01:31:59.218Z,53.66016
2022-08-16T01:37:05.249Z,53.28223
2022-08-16T01:41:59.144Z,53.18457
2022-08-16T01:46:59.226Z,53.45898
2022-08-16T01:52:03.652Z,53.06543
2022-08-16T01:56:59.376Z,53.08398
2022-08-16T02:02:00.573Z,52.94336
2022-08-16T02:06:59.363Z,52.97363
2022-08-16T02:12:00.098Z,52.93652
2022-08-16T02:16:59.321Z,53.15723
2022-08-16T02:22:08.728Z,53.31152
2022-08-16T02:26:59.999Z,53.8125
2022-08-16T02:32:03.201Z,54.08496
2022-08-16T02:36:59.157Z,53.51074
2022-08-16T02:41:59.238Z,53.4375
2022-08-16T02:46:59.189Z,53.73047
2022-08-16T02:51:59.153Z,53.48828
2022-08-16T02:56:59.051Z,54.05469
2022-08-16T03:01:59.032Z,54.42676
2022-08-16T03:07:01.349Z,54.17188
2022-08-16T03:11:59.240Z,54.5918
2022-08-16T03:17:00.739Z,54.52246
2022-08-16T03:21:59.591Z,54.9043
2022-08-16T03:26:59.207Z,54.78711
2022-08-16T03:31:59.599Z,55.25
2022-08-16T03:37:01.131Z,54.86328
2022-08-16T03:42:01.291Z,54.67578
2022-08-16T03:47:02.319Z,54.44629
2022-08-16T03:51:59.053Z,54.53223
2022-08-16T03:57:01.927Z,55.71582
2022-08-16T04:01:59.013Z,55.31445
2022-08-16T04:06:59.505Z,55.3457
2022-08-16T04:11:59.154Z,55.76465
2022-08-16T04:17:00.767Z,55.86621
2022-08-16T04:22:00.938Z,55.79785
2022-08-16T04:27:00.793Z,55.79688
2022-08-16T04:31:59.039Z,56.70801
2022-08-16T04:37:01.214Z,56.77637
2022-08-16T04:41:59.262Z,56.75391
2022-08-16T04:47:02.866Z,57.48145
2022-08-16T04:51:58.978Z,57.28027
2022-08-16T04:56:59.083Z,57.68066
2022-08-16T05:01:59.642Z,57.65137
2022-08-16T05:06:59.281Z,58.50977
2022-08-16T05:11:59.061Z,58.09961
2022-08-16T05:17:00.395Z,58.24023
2022-08-16T05:21:59.264Z,57.7998
2022-08-16T05:26:59.810Z,57.99512
2022-08-16T05:31:59.144Z,58.3623
2022-08-16T05:36:59.109Z,58.53613
2022-08-16T05:42:00.281Z,58.73633
2022-08-16T05:47:00.963Z,58.91895
2022-08-16T05:52:00.706Z,59.00586
2022-08-16T05:57:02.468Z,59.47656
2022-08-16T06:01:59.293Z,59.71484
2022-08-16T06:07:06.101Z,58.78613
2022-08-16T06:12:00.246Z,58.20703
2022-08-16T06:17:05.654Z,58.36914
2022-08-16T06:21:59.083Z,57.43945
2022-08-16T06:27:01.440Z,57.0791
2022-08-16T06:31:59.099Z,56.30176
2022-08-16T06:36:59.696Z,55.86328
2022-08-16T06:41:59.057Z,55.75488
2022-08-16T06:47:02.848Z,55.28418
2022-08-16T06:52:03.057Z,55.24512
2022-08-16T06:57:01.840Z,55.22559
2022-08-16T07:01:59.406Z,55.14453
2022-08-16T07:06:59.672Z,54.79688
2022-08-16T07:12:03.266Z,54.44043
2022-08-16T07:16:59.742Z,54.03418
2022-08-16T07:22:02.083Z,53.61914
2022-08-16T07:26:59.203Z,53.24707
2022-08-16T07:31:59.296Z,53.05273
2022-08-16T07:37:01.470Z,52.81348
2022-08-16T07:41:59.185Z,52.14844
2022-08-16T07:47:02.446Z,51.69824
2022-08-16T07:51:58.948Z,51.33789
2022-08-16T07:56:59.115Z,51.11523
2022-08-16T08:01:59.289Z,50.59082
2022-08-16T08:07:00.794Z,50.47656
2022-08-16T08:12:01.490Z,50.33984
2022-08-16T08:17:01.451Z,50.08398
2022-08-16T08:22:02.381Z,49.83203
2022-08-16T08:26:59.309Z,49.1748
2022-08-16T08:32:01.185Z,48.60059
2022-08-16T08:37:00.666Z,48.4707
2022-08-16T08:42:01.619Z,47.73633
2022-08-16T08:47:02.074Z,46.98438
2022-08-16T08:51:59.083Z,46.56543
2022-08-16T08:56:58.996Z,46.0918
2022-08-16T09:01:59.601Z,45.58887
2022-08-16T09:07:01.321Z,45.0293
2022-08-16T09:12:06.215Z,44.19141
2022-08-16T09:17:03.568Z,43.82324
2022-08-16T09:21:59.287Z,43.56348
2022-08-16T09:26:59.183Z,42.98047
2022-08-16T09:32:01.777Z,42.60449
2022-08-16T09:37:02.509Z,42.46875
2022-08-16T09:42:00.611Z,41.30078
2022-08-16T09:46:59.857Z,40.75195
2022-08-16T09:51:59.513Z,40.47559
2022-08-16T09:56:59.120Z,40.03418
2022-08-16T10:01:59.518Z,39.75391
2022-08-16T10:12:11.747Z,39.91504
2022-08-16T10:16:59.977Z,40.20508
2022-08-16T10:21:59.602Z,39.89844
2022-08-16T10:27:21.692Z,39.73633
2022-08-16T10:32:00.321Z,39.46973
2022-08-16T10:36:59.055Z,39.625
2022-08-16T10:41:59.278Z,39.6377
2022-08-16T10:46:58.973Z,39.85547
2022-08-16T10:52:03.407Z,39.74316
2022-08-16T10:56:59.197Z,39.83203
2022-08-16T11:07:08.604Z,39.79004
2022-08-16T11:12:14.743Z,39.72461
2022-08-16T11:17:09.592Z,39.45703
2022-08-16T11:22:39.394Z,39.41504
2022-08-16T11:27:23.612Z,39.2334
2022-08-16T11:31:59.156Z,39.36719
2022-08-16T11:37:01.058Z,39.47949
2022-08-16T11:41:59.891Z,39.21484
2022-08-16T11:46:59.248Z,39.27441
2022-08-16T11:51:59.240Z,38.9209
2022-08-16T11:56:59.079Z,38.84375
2022-08-16T12:02:04.384Z,38.71875
2022-08-16T12:06:59.115Z,37.96582
2022-08-16T12:12:02.883Z,38.19141
2022-08-16T12:17:00.384Z,38.21777
2022-08-16T12:21:59.655Z,38.04199
2022-08-16T12:26:59.945Z,38.02051
2022-08-16T12:32:01.437Z,37.55176
2022-08-16T12:36:59.129Z,37.63574
2022-08-16T12:41:59.098Z,37.86621
2022-08-16T12:47:09.920Z,37.88086
2022-08-16T12:52:01.210Z,37.99023
2022-08-16T12:56:59.853Z,37.92578
2022-08-16T13:02:12.654Z,37.73047
2022-08-16T13:12:09.687Z,37.72363
2022-08-16T13:16:59.462Z,37.57715
2022-08-16T13:22:06.448Z,37.58398
2022-08-16T13:27:05.694Z,37.55078
2022-08-16T13:31:59.170Z,37.59961
2022-08-16T13:36:59.902Z,37.68652
2022-08-16T13:42:02.216Z,37.62012
2022-08-16T13:47:04.748Z,37.82422
2022-08-16T13:51:59.150Z,37.98242
2022-08-16T13:57:04.035Z,38.11426
2022-08-16T14:02:02.506Z,38.22461
2022-08-16T14:06:59.123Z,38.33594
2022-08-16T14:12:00.483Z,38.41406
2022-08-16T14:16:58.935Z,38.44531
2022-08-16T14:22:13.640Z,38.52637
2022-08-16T14:26:58.885Z,38.53613
2022-08-16T14:32:00.025Z,38.59082
2022-08-16T14:36:59.488Z,38.66602
2022-08-16T14:41:58.929Z,38.70996
2022-08-16T14:46:59.051Z,38.69727
2022-08-16T14:52:03.234Z,38.67188
2022-08-16T14:56:58.932Z,38.62305
2022-08-16T15:02:00.713Z,38.64355
2022-08-16T15:06:58.944Z,38.67578
2022-08-16T15:11:59.108Z,38.7168
2022-08-16T15:16:58.933Z,38.66113
2022-08-16T15:21:58.926Z,38.82227
2022-08-16T15:27:03.613Z,38.66992
2022-08-16T15:32:01.258Z,38.66113
2022-08-16T15:36:59.183Z,38.75098
2022-08-16T15:42:06.473Z,39.01172
2022-08-16T15:47:02.602Z,39.32422
2022-08-16T15:51:59.220Z,39.69629
2022-08-16T15:57:04.274Z,39.94629
2022-08-16T16:01:59.339Z,40.28906
2022-08-16T16:06:59.740Z,40.62891
2022-08-16T16:11:58.901Z,40.90039
2022-08-16T16:17:00.601Z,41.06543
2022-08-16T16:21:58.963Z,41.12695
2022-08-16T16:26:59.034Z,41.21973
2022-08-16T16:32:00.070Z,41.13867
2022-08-16T16:36:59.818Z,41.04785
2022-08-16T16:41:59.217Z,40.77051
2022-08-16T16:47:00.091Z,40.9502
2022-08-16T16:52:06.671Z,41.03613
2022-08-16T16:56:59.125Z,40.86133
2022-08-16T17:02:38.849Z,40.84863
2022-08-16T17:06:59.372Z,40.81445
2022-08-16T17:11:59.487Z,40.97754
2022-08-16T17:16:59.266Z,41.05566
2022-08-16T17:21:59.498Z,41.2041
2022-08-16T17:26:59.258Z,41.41797
2022-08-16T17:32:34.065Z,41.48047
2022-08-16T17:37:00.765Z,41.45996
2022-08-16T17:42:02.255Z,41.71973
2022-08-16T17:46:59.078Z,41.83691
2022-08-16T17:51:59.463Z,42.30273
2022-08-16T17:57:00.777Z,42.45703
2022-08-16T18:01:59.735Z,42.51953
2022-08-16T18:06:59.742Z,42.89355
2022-08-16T18:11:58.914Z,43.24609
2022-08-16T18:16:58.914Z,43.2959
2022-08-16T18:22:11.621Z,43.71875
2022-08-16T18:27:01.382Z,44.00195
2022-08-16T18:31:59.186Z,44.2041
2022-08-16T18:37:01.788Z,44.51074
2022-08-16T18:41:58.962Z,44.76074
2022-08-16T18:46:59.515Z,45.14941
2022-08-16T18:51:59.237Z,45.40918
2022-08-16T18:57:00.793Z,45.78418
2022-08-16T19:02:04.389Z,46.05566
2022-08-16T19:06:58.830Z,46.47754
2022-08-16T19:11:59.828Z,46.72559
2022-08-16T19:16:59.122Z,47.10352
2022-08-16T19:21:58.917Z,47.43359
2022-08-16T19:26:59.320Z,47.69727
2022-08-16T19:31:59.941Z,47.97168
2022-08-16T19:36:59.045Z,48.23535
2022-08-16T19:41:59.342Z,48.53418
2022-08-16T19:46:59.474Z,48.70508
2022-08-16T19:51:59.489Z,48.75977
2022-08-16T19:56:59.991Z,49.15527
2022-08-16T20:02:00.581Z,49.19043
2022-08-16T20:06:59.017Z,49.32031
2022-08-16T20:11:59.221Z,49.43945
2022-08-16T20:16:59.596Z,49.52539
2022-08-16T20:22:01.879Z,49.59668
2022-08-16T20:26:59.887Z,49.59961
2022-08-16T20:31:58.923Z,49.56152
2022-08-16T20:37:01.385Z,49.68164
2022-08-16T20:41:58.947Z,49.64746
2022-08-16T20:46:59.255Z,49.66699
2022-08-16T20:51:59.695Z,49.82031
2022-08-16T20:56:59.178Z,49.81543
2022-08-16T21:01:59.235Z,49.88867
2022-08-16T21:06:59.546Z,49.87109
2022-08-16T21:12:08.743Z,50.03711
2022-08-16T21:16:59.914Z,50.16602
2022-08-16T21:21:58.943Z,50.26172
2022-08-16T21:27:00.045Z,50.47266
2022-08-16T21:32:07.910Z,50.59375
2022-08-16T21:36:58.784Z,50.83691
2022-08-16T21:41:59.146Z,50.86133
2022-08-16T21:46:58.914Z,50.99023
2022-08-16T21:51:58.984Z,51.01367
2022-08-16T21:57:01.440Z,51.27734
2022-08-16T22:02:00.311Z,51.35938
2022-08-16T22:06:58.885Z,51.35059
2022-08-16T22:11:59.008Z,51.54297
2022-08-16T22:16:59.077Z,51.68262
2022-08-16T22:21:59.190Z,51.90137
2022-08-16T22:26:58.807Z,52.04199
2022-08-16T22:32:01.497Z,52.01074
2022-08-16T22:36:58.904Z,52.24023
2022-08-16T22:41:59.125Z,52.36816
2022-08-16T22:46:58.753Z,52.4043
2022-08-16T22:52:00.544Z,52.7168
2022-08-16T22:57:04.979Z,52.84668
2022-08-16T23:02:02.197Z,52.80469
2022-08-16T23:07:03.685Z,52.76465
2022-08-16T23:11:58.947Z,52.91699
2022-08-16T23:16:58.935Z,52.89648
2022-08-16T23:21:58.686Z,53.13184
2022-08-16T23:27:00.888Z,53.03418
2022-08-16T23:31:59.916Z,53.14746
2022-08-16T23:36:58.935Z,52.95996
2022-08-16T23:41:59.411Z,52.94629
2022-08-16T23:46:58.832Z,53.11523
2022-08-16T23:51:59.130Z,52.89453
2022-08-16T23:56:58.742Z,52.93359
